createdAt,value
2018-10-03T00:00:10.473Z,100373.12
2018-10-03T00:03:14.779Z,100390.44
2018-10-03T00:06:19.056Z,100400.32
2018-10-03T00:09:23.404Z,100392.50
2018-10-03T00:12:27.681Z,100399.37
2018-10-03T00:15:32.055Z,100407.28
2018-10-03T00:18:36.387Z,100434.59
2018-10-03T00:21:40.689Z,100429.89
2018-10-03T00:24:45.035Z,100440.07
2018-10-03T00:27:49.452Z,100397.11
2018-10-03T00:30:53.764Z,100418.98
2018-10-03T00:33:58.092Z,100439.12
2018-10-03T00:37:02.419Z,100433.30
2018-10-03T00:40:07.328Z,100432.30
2018-10-03T00:43:11.656Z,100448.86
2018-10-03T00:46:15.933Z,100440.66
2018-10-03T00:49:20.199Z,100445.77
2018-10-03T00:52:24.510Z,100446.58
2018-10-03T00:55:28.825Z,100435.75
2018-10-03T00:58:33.083Z,100421.50
2018-10-03T01:01:37.396Z,100420.45
2018-10-03T01:04:41.703Z,100410.40
2018-10-03T01:07:46.024Z,100427.23
2018-10-03T01:10:50.309Z,100428.09
2018-10-03T01:13:54.766Z,100429.00
2018-10-03T01:16:59.043Z,100431.66
2018-10-03T01:20:03.471Z,100439.23
2018-10-03T01:23:07.818Z,100431.55
2018-10-03T01:26:12.164Z,100442.86
2018-10-03T01:29:16.408Z,100441.52
2018-10-03T01:32:20.689Z,100440.76
2018-10-03T01:35:25.009Z,100435.25
2018-10-03T01:38:29.389Z,100434.45
2018-10-03T01:41:33.653Z,100448.95
2018-10-03T01:44:38.031Z,100444.16
2018-10-03T01:47:42.298Z,100453.66
2018-10-03T01:50:46.613Z,100462.92
2018-10-03T01:53:50.943Z,100475.22
2018-10-03T01:56:55.279Z,100474.13
2018-10-03T01:59:59.597Z,100503.17
2018-10-03T02:03:03.929Z,100484.36
2018-10-03T02:06:08.240Z,100488.16
2018-10-03T02:09:12.553Z,100488.00
2018-10-03T02:12:16.868Z,100509.41
2018-10-03T02:15:21.134Z,100510.74
2018-10-03T02:18:25.390Z,100523.14
2018-10-03T02:21:29.997Z,100523.95
2018-10-03T02:24:34.365Z,100526.98
2018-10-03T02:27:38.716Z,100522.28
2018-10-03T02:30:43.020Z,100542.00
2018-10-03T02:33:47.368Z,100555.00
2018-10-03T02:36:51.637Z,100548.92
2018-10-03T02:39:55.945Z,100564.45
2018-10-03T02:43:00.326Z,100565.69
2018-10-03T02:46:04.608Z,100563.48
2018-10-03T02:49:08.938Z,100572.02
2018-10-03T02:52:13.293Z,100583.58
2018-10-03T02:55:17.560Z,100590.05
2018-10-03T02:58:21.852Z,100592.56
2018-10-03T03:01:26.150Z,100600.83
2018-10-03T03:04:30.408Z,100606.02
2018-10-03T03:07:34.680Z,100618.86
2018-10-03T03:10:38.991Z,100624.46
2018-10-03T03:13:43.268Z,100630.33
2018-10-03T03:16:47.677Z,100631.94
2018-10-03T03:19:51.953Z,100635.77
2018-10-03T03:22:56.222Z,100652.59
2018-10-03T03:26:00.522Z,100656.12
2018-10-03T03:29:05.942Z,100667.64
2018-10-03T03:32:10.198Z,100673.12
2018-10-03T03:35:15.054Z,100676.53
2018-10-03T03:38:19.638Z,100682.70
2018-10-03T03:41:23.927Z,100686.03
2018-10-03T03:44:28.261Z,100692.62
2018-10-03T03:47:32.505Z,100689.36
2018-10-03T03:50:36.797Z,100710.02
2018-10-03T03:53:41.125Z,100711.13
2018-10-03T03:56:45.611Z,100708.98
2018-10-03T03:59:49.868Z,100713.96
2018-10-03T04:02:54.185Z,100718.28
2018-10-03T04:05:58.506Z,100722.03
2018-10-03T04:09:02.813Z,100739.76
2018-10-03T04:12:07.171Z,100739.69
2018-10-03T04:15:11.480Z,100754.85
2018-10-03T04:18:15.776Z,100754.55
2018-10-03T04:21:24.224Z,100765.78
2018-10-03T04:24:28.514Z,100774.17
2018-10-03T04:27:32.751Z,100770.48
2018-10-03T04:30:37.085Z,100786.17
2018-10-03T04:33:41.330Z,100785.73
2018-10-03T04:36:45.611Z,100781.40
2018-10-03T04:39:49.943Z,100779.50
2018-10-03T04:42:54.261Z,100776.72
2018-10-03T04:45:58.577Z,100784.34
2018-10-03T04:49:02.985Z,100798.89
2018-10-03T04:52:07.208Z,100800.83
2018-10-03T04:55:11.544Z,100806.27
2018-10-03T04:58:15.860Z,100816.42
2018-10-03T05:01:20.115Z,100819.31
2018-10-03T05:04:24.423Z,100819.11
2018-10-03T05:07:28.733Z,100828.12
2018-10-03T05:10:33.065Z,100832.80
2018-10-03T05:13:37.409Z,100835.44
2018-10-03T05:16:41.749Z,100848.02
2018-10-03T05:19:46.013Z,100856.23
2018-10-03T05:22:50.338Z,100856.45
2018-10-03T05:25:54.626Z,100865.80
2018-10-03T05:28:58.976Z,100878.23
2018-10-03T05:32:04.085Z,100879.53
2018-10-03T05:35:08.333Z,100877.46
2018-10-03T05:38:12.676Z,100883.41
2018-10-03T05:41:17.154Z,100890.34
2018-10-03T05:44:21.384Z,100902.48
2018-10-03T05:47:25.738Z,100914.66
2018-10-03T05:50:30.043Z,100927.75
2018-10-03T05:53:34.316Z,100928.25
2018-10-03T05:56:38.591Z,100934.30
2018-10-03T05:59:42.915Z,100943.42
2018-10-03T06:02:47.231Z,100951.49
2018-10-03T06:05:51.503Z,100956.96
2018-10-03T06:08:55.775Z,100959.34
2018-10-03T06:12:00.164Z,100959.89
2018-10-03T06:15:04.623Z,100976.37
2018-10-03T06:18:08.971Z,100983.65
2018-10-03T06:21:13.289Z,100981.20
2018-10-03T06:24:17.611Z,100991.28
2018-10-03T06:27:21.921Z,101009.63
2018-10-03T06:30:26.395Z,101014.53
2018-10-03T06:33:30.677Z,101027.50
2018-10-03T06:36:35.009Z,101041.45
2018-10-03T06:39:39.303Z,101041.05
2018-10-03T06:42:43.612Z,101041.03
2018-10-03T06:45:47.998Z,101050.05
2018-10-03T06:48:52.130Z,101059.84
2018-10-03T06:51:56.399Z,101062.27
2018-10-03T06:55:00.661Z,101079.47
2018-10-03T06:58:05.043Z,101080.23
2018-10-03T07:01:10.390Z,101086.47
2018-10-03T07:04:14.804Z,101092.04
2018-10-03T07:07:19.167Z,101101.07
2018-10-03T07:10:23.543Z,101110.36
2018-10-03T07:13:29.357Z,101110.48
2018-10-03T07:16:35.099Z,101119.92
2018-10-03T07:19:39.401Z,101118.50
2018-10-03T07:22:43.721Z,101122.71
2018-10-03T07:25:48.144Z,101121.86
2018-10-03T07:28:52.468Z,101130.70
2018-10-03T07:31:56.776Z,101144.67
2018-10-03T07:35:01.097Z,101148.70
2018-10-03T07:38:05.451Z,101157.11
2018-10-03T07:41:09.846Z,101166.77
2018-10-03T07:44:14.142Z,101180.67
2018-10-03T07:47:18.394Z,101172.02
2018-10-03T07:50:22.695Z,101180.45
2018-10-03T07:53:27.066Z,101193.94
2018-10-03T07:56:31.451Z,101199.31
2018-10-03T07:59:35.797Z,101214.22
2018-10-03T08:02:40.074Z,101216.88
2018-10-03T08:05:44.369Z,101222.22
2018-10-03T08:08:48.736Z,101226.34
2018-10-03T08:11:53.084Z,101227.66
2018-10-03T08:14:57.471Z,101233.96
2018-10-03T08:18:01.785Z,101244.05
2018-10-03T08:21:06.846Z,101245.52
2018-10-03T08:24:11.214Z,101247.05
2018-10-03T08:27:15.582Z,101253.23
2018-10-03T08:30:19.928Z,101253.34
2018-10-03T08:33:24.307Z,101256.12
2018-10-03T08:36:28.542Z,101256.61
2018-10-03T08:39:32.863Z,101270.55
2018-10-03T08:42:37.133Z,101265.19
2018-10-03T08:45:41.606Z,101280.63
2018-10-03T08:48:46.172Z,101280.72
2018-10-03T08:51:50.393Z,101291.97
2018-10-03T08:54:54.765Z,101291.20
2018-10-03T08:57:59.175Z,101305.36
2018-10-03T09:01:03.459Z,101313.27
2018-10-03T09:04:08.052Z,101310.67
2018-10-03T09:07:12.334Z,101308.17
2018-10-03T09:10:16.711Z,101315.22
2018-10-03T09:13:20.993Z,101330.38
2018-10-03T09:16:25.333Z,101320.98
2018-10-03T09:19:29.680Z,101338.55
2018-10-03T09:22:34.004Z,101350.53
2018-10-03T09:25:39.316Z,101334.45
2018-10-03T09:28:43.665Z,101343.58
2018-10-03T09:31:48.224Z,101346.91
2018-10-03T09:34:52.620Z,101357.82
2018-10-03T09:37:57.015Z,101368.45
2018-10-03T09:41:01.337Z,101370.03
2018-10-03T09:44:05.827Z,101369.66
2018-10-03T09:47:11.083Z,101380.16
2018-10-03T09:50:15.348Z,101380.59
2018-10-03T09:53:19.656Z,101393.69
2018-10-03T09:56:24.005Z,101388.34
2018-10-03T09:59:28.355Z,101403.66
2018-10-03T10:02:32.715Z,101409.45
2018-10-03T10:05:37.032Z,101420.57
2018-10-03T10:08:41.320Z,101413.50
2018-10-03T10:11:45.797Z,101420.13
2018-10-03T10:14:50.114Z,101429.41
2018-10-03T10:17:54.457Z,101429.45
2018-10-03T10:20:58.872Z,101431.81
2018-10-03T10:24:03.216Z,101433.51
2018-10-03T10:27:07.859Z,101446.99
2018-10-03T10:30:12.370Z,101445.55
2018-10-03T10:33:16.702Z,101460.66
2018-10-03T10:36:21.022Z,101473.20
2018-10-03T10:39:25.422Z,101472.07
2018-10-03T10:42:29.884Z,101488.75
2018-10-03T10:45:34.221Z,101476.84
2018-10-03T10:48:38.568Z,101488.09
2018-10-03T10:51:42.926Z,101495.22
2018-10-03T10:54:47.278Z,101500.42
2018-10-03T10:57:51.675Z,101496.27
2018-10-03T11:00:56.091Z,101502.91
2018-10-03T11:04:00.397Z,101514.77
2018-10-03T11:07:04.685Z,101521.02
2018-10-03T11:10:08.992Z,101517.34
2018-10-03T11:13:13.369Z,101531.09
2018-10-03T11:16:18.864Z,101526.61
2018-10-03T11:19:23.150Z,101533.36
2018-10-03T11:22:27.569Z,101540.96
2018-10-03T11:25:32.002Z,101541.98
2018-10-03T11:28:36.318Z,101551.37
2018-10-03T11:31:40.705Z,101550.73
2018-10-03T11:34:45.013Z,101556.82
2018-10-03T11:37:49.407Z,101549.76
2018-10-03T11:40:53.706Z,101564.95
2018-10-03T11:43:58.193Z,101548.13
2018-10-03T11:47:02.528Z,101563.55
2018-10-03T11:50:06.863Z,101558.02
2018-10-03T11:53:11.193Z,101570.45
2018-10-03T11:56:16.096Z,101572.69
2018-10-03T11:59:20.417Z,101570.08
2018-10-03T12:02:24.754Z,101573.41
2018-10-03T12:05:29.077Z,101579.32
2018-10-03T12:08:33.391Z,101580.13
2018-10-03T12:11:37.774Z,101587.53
2018-10-03T12:14:42.148Z,101597.49
2018-10-03T12:17:46.474Z,101600.28
2018-10-03T12:20:50.768Z,101595.50
2018-10-03T12:23:55.338Z,101611.77
2018-10-03T12:26:59.758Z,101611.56
2018-10-03T12:30:04.272Z,101617.29
2018-10-03T12:33:08.601Z,101614.19
2018-10-03T12:36:13.008Z,101619.34
2018-10-03T12:39:17.481Z,101631.69
2018-10-03T12:42:21.802Z,101626.34
2018-10-03T12:45:26.937Z,101636.30
2018-10-03T12:48:31.338Z,101642.00
2018-10-03T12:51:36.101Z,101640.36
2018-10-03T12:54:40.500Z,101645.80
2018-10-03T12:57:45.585Z,101647.18
2018-10-03T13:00:50.059Z,101657.95
2018-10-03T13:03:54.737Z,101654.05
2018-10-03T13:06:59.083Z,101664.59
2018-10-03T13:10:03.426Z,101660.49
2018-10-03T13:13:07.742Z,101656.06
2018-10-03T13:16:12.732Z,101662.88
2018-10-03T13:19:17.046Z,101660.87
2018-10-03T13:22:21.504Z,101661.22
2018-10-03T13:25:25.887Z,101658.19
2018-10-03T13:28:30.308Z,101658.34
2018-10-03T13:31:34.726Z,101669.77
2018-10-03T13:34:39.155Z,101667.32
2018-10-03T13:37:43.552Z,101671.28
2018-10-03T13:40:47.988Z,101679.34
2018-10-03T13:43:52.372Z,101676.84
2018-10-03T13:46:56.702Z,101688.46
2018-10-03T13:50:01.128Z,101704.81
2018-10-03T13:53:05.604Z,101697.93
2018-10-03T13:56:09.988Z,101694.37
2018-10-03T13:59:14.301Z,101692.89
2018-10-03T14:02:18.987Z,101700.88
2018-10-03T14:05:23.482Z,101706.69
2018-10-03T14:08:27.810Z,101704.23
2018-10-03T14:11:32.185Z,101701.21
2018-10-03T14:14:36.491Z,101706.61
2018-10-03T14:17:40.817Z,101712.65
2018-10-03T14:20:45.174Z,101712.65
2018-10-03T14:23:49.618Z,101712.55
2018-10-03T14:26:54.030Z,101714.85
2018-10-03T14:29:58.442Z,101717.17
2018-10-03T14:33:02.770Z,101722.08
2018-10-03T14:36:07.242Z,101731.58
2018-10-03T14:39:11.631Z,101719.98
2018-10-03T14:42:16.040Z,101730.16
2018-10-03T14:45:20.390Z,101725.48
2018-10-03T14:48:25.612Z,101726.92
2018-10-03T14:51:29.933Z,101726.36
2018-10-03T14:54:34.242Z,101735.51
2018-10-03T14:57:38.572Z,101743.20
2018-10-03T15:00:42.994Z,101736.03
2018-10-03T15:03:47.448Z,101743.33
2018-10-03T15:06:51.848Z,101747.56
2018-10-03T15:09:56.751Z,101754.64
2018-10-03T15:13:01.040Z,101756.02
2018-10-03T15:16:05.416Z,101748.09
2018-10-03T15:19:09.717Z,101748.02
2018-10-03T15:22:14.063Z,101753.67
2018-10-03T15:25:18.386Z,101752.25
2018-10-03T15:28:23.734Z,101755.21
2018-10-03T15:31:28.261Z,101748.13
2018-10-03T15:34:32.670Z,101749.58
2018-10-03T15:37:36.966Z,101761.21
2018-10-03T15:40:41.277Z,101770.31
2018-10-03T15:43:45.618Z,101762.09
2018-10-03T15:46:49.915Z,101769.36
2018-10-03T15:49:54.265Z,101775.66
2018-10-03T15:52:58.632Z,101779.07
2018-10-03T15:56:03.389Z,101778.43
2018-10-03T15:59:07.800Z,101781.06
2018-10-03T16:02:12.106Z,101780.80
2018-10-03T16:05:16.487Z,101792.14
2018-10-03T16:08:20.796Z,101798.73
2018-10-03T16:11:25.145Z,101800.52
2018-10-03T16:14:29.465Z,101802.54
2018-10-03T16:17:33.780Z,101808.20
2018-10-03T16:20:38.806Z,101807.06
2018-10-03T16:23:43.147Z,101792.14
2018-10-03T16:26:47.548Z,101804.01
2018-10-03T16:29:51.907Z,101799.23
2018-10-03T16:32:56.324Z,101799.94
2018-10-03T16:36:00.630Z,101799.84
2018-10-03T16:39:06.870Z,101799.74
2018-10-03T16:42:11.184Z,101797.85
2018-10-03T16:45:15.487Z,101804.70
2018-10-03T16:48:19.763Z,101805.20
2018-10-03T16:51:24.218Z,101808.95
2018-10-03T16:54:28.604Z,101801.12
2018-10-03T16:57:32.973Z,101800.25
2018-10-03T17:00:37.355Z,101800.64
2018-10-03T17:03:41.799Z,101796.64
2018-10-03T17:06:46.161Z,101803.06
2018-10-03T17:09:50.563Z,101815.50
2018-10-03T17:12:54.964Z,101811.60
2018-10-03T17:15:59.338Z,101829.30
2018-10-03T17:19:03.634Z,101829.09
2018-10-03T17:22:08.812Z,101837.34
2018-10-03T17:25:13.189Z,101826.42
2018-10-03T17:28:17.561Z,101836.04
2018-10-03T17:31:22.159Z,101841.72
2018-10-03T17:34:26.818Z,101839.58
2018-10-03T17:37:31.257Z,101840.59
2018-10-03T17:40:35.910Z,101854.05
2018-10-03T17:43:40.366Z,101851.98
2018-10-03T17:46:45.236Z,101850.99
2018-10-03T17:49:49.734Z,101850.57
2018-10-03T17:52:54.234Z,101852.39
2018-10-03T17:55:58.811Z,101855.98
2018-10-03T17:59:04.358Z,101864.97
2018-10-03T18:02:10.910Z,101867.56
2018-10-03T18:05:15.526Z,101862.30
2018-10-03T18:08:20.332Z,101867.11
2018-10-03T18:11:25.133Z,101870.05
2018-10-03T18:14:30.051Z,101874.37
2018-10-03T18:17:35.663Z,101871.36
2018-10-03T18:20:40.434Z,101873.98
2018-10-03T18:23:45.297Z,101866.97
2018-10-03T18:26:50.049Z,101869.95
2018-10-03T18:29:54.795Z,101874.77
2018-10-03T18:32:59.623Z,101878.30
2018-10-03T18:36:04.465Z,101876.06
2018-10-03T18:39:10.624Z,101882.20
2018-10-03T18:42:15.636Z,101881.26
2018-10-03T18:45:20.523Z,101887.30
2018-10-03T18:48:25.256Z,101884.63
2018-10-03T18:51:30.279Z,101889.05
2018-10-03T18:54:35.211Z,101890.48
2018-10-03T18:57:40.187Z,101893.44
2018-10-03T19:00:44.840Z,101894.63
2018-10-03T19:03:50.581Z,101904.53
2018-10-03T19:06:55.448Z,101903.23
2018-10-03T19:10:00.406Z,101901.13
2018-10-03T19:13:05.325Z,101906.78
2018-10-03T19:16:10.206Z,101915.98
2018-10-03T19:19:16.015Z,101914.78
2018-10-03T19:22:21.077Z,101916.69
2018-10-03T19:25:25.956Z,101920.66
2018-10-03T19:28:30.925Z,101917.74
2018-10-03T19:31:36.120Z,101928.14
2018-10-03T19:37:12.509Z,101923.29
2018-10-03T19:40:17.308Z,101928.91
2018-10-03T19:43:22.049Z,101931.05
2018-10-03T19:46:26.864Z,101926.66
2018-10-03T19:49:31.663Z,101928.27
2018-10-03T19:52:36.548Z,101924.66
2018-10-03T19:55:42.206Z,101924.13
2018-10-03T19:58:46.871Z,101929.56
2018-10-03T20:01:51.626Z,101931.91
2018-10-03T20:04:56.445Z,101928.13
2018-10-03T20:08:01.314Z,101927.95
2018-10-03T20:11:05.939Z,101934.78
2018-10-03T20:14:10.689Z,101939.67
2018-10-03T20:17:15.364Z,101948.19
2018-10-03T20:20:20.085Z,101949.77
2018-10-03T20:23:24.770Z,101952.36
2018-10-03T20:26:29.403Z,101943.65
2018-10-03T20:29:34.165Z,101944.41
2018-10-03T20:32:38.909Z,101946.70
2018-10-03T20:35:43.710Z,101937.69
2018-10-03T20:38:48.294Z,101937.45
2018-10-03T20:41:52.736Z,101939.63
2018-10-03T20:44:57.159Z,101929.31
2018-10-03T20:48:01.619Z,101934.86
2018-10-03T20:51:05.988Z,101934.25
2018-10-03T20:54:10.856Z,101934.02
2018-10-03T20:57:15.136Z,101937.27
2018-10-03T21:00:19.554Z,101937.89
2018-10-03T21:03:25.082Z,101935.59
2018-10-03T21:06:30.145Z,101932.00
2018-10-03T21:09:35.224Z,101931.17
2018-10-03T21:12:40.422Z,101932.00
2018-10-03T21:15:44.964Z,101938.00
2018-10-03T21:18:50.641Z,101941.48
2018-10-03T21:21:55.699Z,101942.85
2018-10-03T21:25:01.358Z,101939.41
2018-10-03T21:28:06.515Z,101937.77
2018-10-03T21:31:11.711Z,101937.55
2018-10-03T21:34:16.019Z,101934.14
2018-10-03T21:37:20.552Z,101931.66
2018-10-03T21:40:25.470Z,101932.96
2018-10-03T21:43:30.453Z,101940.75
2018-10-03T21:46:35.691Z,101941.63
2018-10-03T21:49:40.645Z,101940.94
2018-10-03T21:52:45.634Z,101938.91
2018-10-03T21:55:50.652Z,101946.05
2018-10-03T21:58:55.423Z,101948.30
2018-10-03T22:01:59.931Z,101945.81
2018-10-03T22:05:06.860Z,101949.67
2018-10-03T22:08:11.646Z,101940.23
2018-10-03T22:11:16.677Z,101944.52
2018-10-03T22:14:21.007Z,101935.05
2018-10-03T22:17:26.219Z,101942.30
2018-10-03T22:20:31.526Z,101943.22
2018-10-03T22:23:36.036Z,101942.16
2018-10-03T22:26:40.403Z,101949.06
2018-10-03T22:29:44.915Z,101945.66
2018-10-03T22:32:49.274Z,101948.65
2018-10-03T22:35:53.659Z,101940.40
2018-10-03T22:38:57.996Z,101949.83
2018-10-03T22:42:03.779Z,101946.02
2018-10-03T22:45:08.755Z,101944.18
2018-10-03T22:48:13.659Z,101945.41
2018-10-03T22:51:18.999Z,101951.36
2018-10-03T22:54:23.528Z,101943.11
2018-10-03T22:57:27.805Z,101944.41
2018-10-03T23:00:32.136Z,101942.63
2018-10-03T23:03:36.497Z,101945.64
2018-10-03T23:06:40.921Z,101947.35
2018-10-03T23:09:45.286Z,101946.25
2018-10-03T23:12:49.754Z,101941.16
2018-10-03T23:15:54.166Z,101946.96
2018-10-03T23:18:58.759Z,101948.56
2018-10-03T23:22:03.145Z,101945.20
2018-10-03T23:25:07.611Z,101950.02
2018-10-03T23:28:11.987Z,101950.02
2018-10-03T23:31:16.452Z,101954.47
2018-10-03T23:34:20.808Z,101950.58
2018-10-03T23:37:25.132Z,101948.13
2018-10-03T23:40:29.376Z,101949.00
2018-10-03T23:43:33.676Z,101954.73
2018-10-03T23:46:38.003Z,101957.33
2018-10-03T23:49:42.338Z,101963.33
2018-10-03T23:52:46.811Z,101957.14
2018-10-03T23:55:51.156Z,101964.94
2018-10-03T23:58:55.641Z,101963.33
